createdAt,value
2018-03-29T00:00:27.394Z,6.09
2018-03-29T00:02:53.761Z,6.21
2018-03-29T00:05:20.132Z,6.15
2018-03-29T00:07:46.498Z,6.12
2018-03-29T00:10:12.861Z,6.10
2018-03-29T00:12:39.247Z,6.24
2018-03-29T00:15:05.638Z,6.19
2018-03-29T00:17:32.059Z,6.01
2018-03-29T00:19:58.434Z,6.00
2018-03-29T00:22:24.839Z,6.06
2018-03-29T00:24:51.238Z,6.05
2018-03-29T00:27:17.622Z,6.03
2018-03-29T00:29:44.019Z,5.99
2018-03-29T00:32:10.394Z,5.92
2018-03-29T00:34:36.763Z,5.84
2018-03-29T00:37:03.130Z,5.80
2018-03-29T00:39:29.489Z,5.83
2018-03-29T00:41:56.280Z,5.78
2018-03-29T00:44:22.636Z,5.72
2018-03-29T00:46:49.130Z,5.47
2018-03-29T00:49:15.545Z,5.63
2018-03-29T00:51:41.981Z,5.66
2018-03-29T00:54:08.366Z,5.67
2018-03-29T00:56:34.726Z,5.68
2018-03-29T00:59:01.085Z,5.71
2018-03-29T01:01:27.467Z,5.80
2018-03-29T01:03:53.841Z,5.71
2018-03-29T01:06:21.215Z,5.69
2018-03-29T01:08:47.586Z,5.71
2018-03-29T01:11:14.013Z,5.72
2018-03-29T01:13:40.387Z,5.88
2018-03-29T01:16:06.928Z,5.93
2018-03-29T01:18:33.338Z,5.98
2018-03-29T01:20:59.761Z,6.12
2018-03-29T01:23:26.234Z,6.13
2018-03-29T01:25:52.588Z,6.10
2018-03-29T01:28:18.990Z,6.11
2018-03-29T01:30:45.383Z,6.17
2018-03-29T01:33:11.750Z,6.27
2018-03-29T01:35:38.126Z,6.31
2018-03-29T01:38:04.561Z,6.28
2018-03-29T01:40:30.929Z,6.26
2018-03-29T01:42:57.367Z,6.25
2018-03-29T01:45:23.778Z,6.24
2018-03-29T01:47:50.238Z,6.28
2018-03-29T01:50:16.636Z,6.15
2018-03-29T01:52:43.085Z,6.25
2018-03-29T01:55:09.448Z,6.37
2018-03-29T01:57:35.862Z,6.44
2018-03-29T02:00:02.342Z,6.41
2018-03-29T02:02:28.819Z,6.46
2018-03-29T02:04:55.241Z,6.35
2018-03-29T02:07:21.628Z,6.37
2018-03-29T02:09:48.174Z,6.40
2018-03-29T02:12:14.626Z,6.54
2018-03-29T02:14:41.078Z,6.62
2018-03-29T02:17:07.490Z,6.57
2018-03-29T02:19:33.952Z,6.47
2018-03-29T02:22:00.386Z,6.68
2018-03-29T02:24:26.777Z,6.57
2018-03-29T02:26:53.225Z,6.41
2018-03-29T02:29:19.601Z,6.39
2018-03-29T02:31:45.988Z,6.34
2018-03-29T02:34:12.362Z,6.16
2018-03-29T02:36:38.763Z,6.25
2018-03-29T02:39:05.190Z,6.18
2018-03-29T02:41:31.632Z,5.92
2018-03-29T02:43:58.044Z,5.95
2018-03-29T02:46:24.399Z,5.92
2018-03-29T02:48:50.798Z,5.92
2018-03-29T02:51:17.192Z,5.88
2018-03-29T02:53:43.554Z,5.88
2018-03-29T02:56:09.922Z,5.89
2018-03-29T02:58:36.291Z,5.97
2018-03-29T03:01:02.718Z,5.93
2018-03-29T03:03:29.070Z,5.83
2018-03-29T03:05:55.562Z,5.84
2018-03-29T03:08:22.060Z,5.88
2018-03-29T03:10:48.455Z,5.97
2018-03-29T03:13:14.828Z,5.96
2018-03-29T03:15:41.260Z,6.01
2018-03-29T03:18:07.658Z,6.06
2018-03-29T03:20:34.058Z,6.12
2018-03-29T03:23:00.436Z,6.22
2018-03-29T03:25:26.796Z,6.15
2018-03-29T03:27:53.258Z,6.21
2018-03-29T03:30:19.846Z,6.24
2018-03-29T03:32:46.246Z,6.30
2018-03-29T03:35:12.633Z,6.34
2018-03-29T03:37:39.058Z,6.37
2018-03-29T03:40:05.466Z,6.41
2018-03-29T03:42:32.019Z,6.45
2018-03-29T03:44:58.440Z,6.39
2018-03-29T03:47:24.821Z,6.35
2018-03-29T03:49:51.279Z,6.22
2018-03-29T03:52:17.678Z,6.15
2018-03-29T03:54:44.077Z,6.24
2018-03-29T03:57:10.453Z,6.19
2018-03-29T03:59:36.845Z,6.27
2018-03-29T04:02:03.236Z,6.19
2018-03-29T04:04:29.606Z,6.12
2018-03-29T04:06:55.974Z,6.04
2018-03-29T04:09:22.417Z,5.85
2018-03-29T04:11:48.830Z,6.02
2018-03-29T04:14:15.210Z,6.13
2018-03-29T04:16:41.841Z,6.11
2018-03-29T04:19:08.404Z,6.17
2018-03-29T04:21:34.885Z,6.18
2018-03-29T04:24:01.267Z,6.21
2018-03-29T04:26:27.712Z,6.04
2018-03-29T04:28:54.080Z,5.95
2018-03-29T04:31:20.470Z,5.94
2018-03-29T04:33:46.834Z,5.95
2018-03-29T04:36:13.189Z,5.96
2018-03-29T04:38:39.569Z,5.69
2018-03-29T04:41:06.004Z,5.70
2018-03-29T04:43:32.566Z,5.83
2018-03-29T04:45:58.981Z,5.66
2018-03-29T04:48:25.414Z,5.69
2018-03-29T04:50:51.850Z,5.74
2018-03-29T04:53:18.361Z,5.81
2018-03-29T04:55:44.797Z,5.78
2018-03-29T04:58:11.174Z,5.85
2018-03-29T05:00:37.565Z,5.93
2018-03-29T05:03:03.996Z,5.96
2018-03-29T05:05:30.391Z,6.01
2018-03-29T05:07:56.770Z,6.05
2018-03-29T05:10:23.174Z,6.07
2018-03-29T05:12:49.546Z,6.11
2018-03-29T05:15:15.969Z,6.14
2018-03-29T05:17:42.354Z,6.21
2018-03-29T05:20:08.812Z,6.39
2018-03-29T05:22:35.489Z,6.53
2018-03-29T05:25:01.921Z,6.53
2018-03-29T05:27:28.386Z,6.66
2018-03-29T05:29:54.770Z,6.80
2018-03-29T05:32:21.150Z,6.89
2018-03-29T05:34:47.568Z,6.98
2018-03-29T05:37:14.038Z,7.06
2018-03-29T05:39:40.454Z,7.22
2018-03-29T05:42:06.825Z,7.17
2018-03-29T05:44:33.314Z,7.29
2018-03-29T05:46:59.767Z,7.36
2018-03-29T05:49:26.145Z,7.41
2018-03-29T05:51:52.638Z,7.49
2018-03-29T05:54:19.034Z,7.41
2018-03-29T05:56:45.410Z,7.43
2018-03-29T05:59:11.761Z,7.23
2018-03-29T06:01:38.188Z,7.36
2018-03-29T06:04:04.724Z,7.54
2018-03-29T06:06:31.133Z,7.71
2018-03-29T06:08:57.499Z,7.75
2018-03-29T06:11:23.866Z,7.99
2018-03-29T06:13:56.425Z,8.14
2018-03-29T06:16:22.830Z,8.18
2018-03-29T06:18:49.247Z,8.30
2018-03-29T06:21:15.618Z,8.45
2018-03-29T06:23:42.130Z,8.53
2018-03-29T06:26:08.845Z,8.50
2018-03-29T06:28:35.240Z,8.54
2018-03-29T06:31:01.574Z,8.68
2018-03-29T06:33:27.990Z,8.85
2018-03-29T06:35:54.437Z,8.74
2018-03-29T06:38:20.802Z,8.79
2018-03-29T06:40:47.166Z,8.86
2018-03-29T06:43:13.597Z,8.95
2018-03-29T06:45:39.965Z,8.92
2018-03-29T06:48:06.318Z,8.73
2018-03-29T06:50:32.703Z,9.03
2018-03-29T06:52:59.069Z,9.06
2018-03-29T06:55:25.558Z,8.95
2018-03-29T06:57:51.923Z,8.98
2018-03-29T07:00:18.302Z,9.09
2018-03-29T07:02:44.674Z,9.20
2018-03-29T07:05:11.042Z,9.04
2018-03-29T07:07:37.456Z,9.32
2018-03-29T07:10:03.945Z,9.50
2018-03-29T07:12:30.339Z,9.32
2018-03-29T07:14:56.866Z,9.66
2018-03-29T07:17:23.215Z,9.77
2018-03-29T07:19:49.593Z,9.83
2018-03-29T07:22:15.969Z,9.87
2018-03-29T07:24:42.330Z,9.90
2018-03-29T07:27:08.702Z,9.99
2018-03-29T07:29:35.054Z,10.14
2018-03-29T07:32:01.420Z,10.11
2018-03-29T07:34:27.796Z,10.30
2018-03-29T07:36:54.191Z,10.18
2018-03-29T07:39:20.729Z,10.36
2018-03-29T07:41:50.314Z,10.44
2018-03-29T07:44:24.411Z,10.59
2018-03-29T07:46:53.261Z,10.67
2018-03-29T07:49:19.791Z,10.63
2018-03-29T07:51:46.153Z,10.61
2018-03-29T07:54:12.505Z,10.63
2018-03-29T07:56:38.882Z,10.81
2018-03-29T07:59:05.274Z,10.75
2018-03-29T08:01:31.649Z,10.92
2018-03-29T08:03:58.031Z,11.00
2018-03-29T08:06:24.574Z,10.90
2018-03-29T08:08:50.950Z,10.92
2018-03-29T08:11:17.336Z,11.02
2018-03-29T08:13:43.698Z,11.10
2018-03-29T08:16:10.062Z,11.23
2018-03-29T08:18:36.485Z,11.29
2018-03-29T08:21:02.846Z,11.21
2018-03-29T08:23:29.191Z,11.20
2018-03-29T08:25:55.571Z,11.39
2018-03-29T08:28:22.004Z,11.42
2018-03-29T08:30:48.374Z,11.42
2018-03-29T08:33:14.750Z,11.50
2018-03-29T08:35:41.138Z,11.61
2018-03-29T08:38:07.494Z,11.76
2018-03-29T08:40:33.889Z,11.79
2018-03-29T08:43:00.302Z,11.79
2018-03-29T08:45:26.670Z,11.64
2018-03-29T08:47:53.039Z,11.85
2018-03-29T08:50:19.659Z,12.00
2018-03-29T08:52:46.315Z,11.93
2018-03-29T08:55:12.725Z,12.04
2018-03-29T08:57:39.101Z,11.98
2018-03-29T09:00:05.717Z,12.22
2018-03-29T09:02:32.134Z,12.20
2018-03-29T09:04:58.870Z,12.30
2018-03-29T09:07:25.239Z,12.43
2018-03-29T09:09:51.842Z,12.24
2018-03-29T09:12:18.217Z,12.23
2018-03-29T09:14:44.614Z,12.38
2018-03-29T09:17:11.002Z,12.43
2018-03-29T09:19:37.576Z,12.55
2018-03-29T09:22:04.106Z,12.76
2018-03-29T09:24:30.470Z,12.71
2018-03-29T09:26:56.869Z,12.88
2018-03-29T09:29:23.234Z,12.77
2018-03-29T09:31:49.613Z,12.88
2018-03-29T09:34:16.113Z,12.72
2018-03-29T09:36:42.642Z,12.69
2018-03-29T09:39:09.038Z,12.74
2018-03-29T09:41:35.714Z,12.88
2018-03-29T09:44:02.081Z,12.79
2018-03-29T09:46:28.485Z,12.83
2018-03-29T09:48:54.874Z,12.98
2018-03-29T09:51:21.344Z,12.84
2018-03-29T09:53:47.692Z,12.93
2018-03-29T09:56:14.073Z,13.13
2018-03-29T09:58:40.529Z,13.23
2018-03-29T10:01:06.962Z,13.22
2018-03-29T10:03:39.595Z,13.47
2018-03-29T10:06:06.077Z,13.37
2018-03-29T10:08:32.481Z,13.39
2018-03-29T10:10:59.019Z,13.35
2018-03-29T10:13:25.413Z,13.55
2018-03-29T10:15:51.942Z,13.82
2018-03-29T10:18:18.304Z,13.74
2018-03-29T10:20:44.733Z,13.58
2018-03-29T10:23:11.140Z,13.55
2018-03-29T10:25:37.618Z,13.60
2018-03-29T10:28:04.014Z,13.71
2018-03-29T10:30:30.673Z,13.70
2018-03-29T10:32:57.089Z,13.73
2018-03-29T10:35:23.482Z,13.79
2018-03-29T10:37:54.300Z,13.90
2018-03-29T10:40:54.246Z,13.96
2018-03-29T10:43:21.203Z,13.98
2018-03-29T10:45:49.538Z,13.91
2018-03-29T10:48:16.913Z,14.04
2018-03-29T10:50:46.038Z,14.11
2018-03-29T10:53:21.799Z,14.17
2018-03-29T10:55:51.421Z,14.12
2018-03-29T10:58:18.002Z,14.20
2018-03-29T11:00:44.481Z,14.20
2018-03-29T11:03:11.089Z,14.32
2018-03-29T11:05:37.622Z,14.46
2018-03-29T11:08:04.178Z,14.62
2018-03-29T11:10:30.646Z,14.84
2018-03-29T11:12:57.014Z,14.82
2018-03-29T11:15:23.458Z,14.73
2018-03-29T11:17:49.843Z,14.74
2018-03-29T11:20:16.290Z,14.76
2018-03-29T11:22:42.685Z,14.72
2018-03-29T11:25:09.154Z,14.75
2018-03-29T11:27:35.577Z,14.78
2018-03-29T11:30:02.186Z,14.80
2018-03-29T11:32:28.678Z,14.37
2018-03-29T11:34:55.097Z,14.50
2018-03-29T11:37:21.754Z,14.63
2018-03-29T11:39:48.169Z,14.73
2018-03-29T11:42:14.666Z,14.72
2018-03-29T11:44:41.158Z,14.66
2018-03-29T11:47:07.571Z,14.80
2018-03-29T11:49:34.007Z,14.86
2018-03-29T11:52:00.510Z,14.98
2018-03-29T11:54:26.904Z,14.93
2018-03-29T11:56:53.326Z,15.03
2018-03-29T11:59:19.829Z,15.07
2018-03-29T12:01:46.214Z,15.08
2018-03-29T12:04:12.730Z,15.02
2018-03-29T12:06:39.185Z,15.05
2018-03-29T12:09:05.806Z,14.98
2018-03-29T12:11:32.357Z,14.97
2018-03-29T12:13:58.798Z,14.74
2018-03-29T12:16:25.258Z,14.85
2018-03-29T12:18:51.738Z,15.11
2018-03-29T12:21:18.178Z,15.03
2018-03-29T12:23:44.593Z,15.03
2018-03-29T12:26:11.146Z,15.14
2018-03-29T12:28:37.569Z,15.12
2018-03-29T12:31:04.087Z,15.22
2018-03-29T12:33:30.503Z,15.28
2018-03-29T12:35:56.998Z,15.39
2018-03-29T12:38:23.458Z,15.32
2018-03-29T12:40:49.861Z,15.42
2018-03-29T12:43:16.242Z,15.33
2018-03-29T12:45:42.671Z,15.32
2018-03-29T12:48:09.200Z,15.39
2018-03-29T12:50:35.626Z,15.45
2018-03-29T12:53:02.033Z,15.43
2018-03-29T12:55:38.554Z,15.38
2018-03-29T12:58:11.784Z,15.45
2018-03-29T13:00:38.271Z,15.42
2018-03-29T13:03:04.749Z,15.31
2018-03-29T13:05:31.170Z,15.48
2018-03-29T13:07:57.605Z,15.48
2018-03-29T13:10:24.066Z,15.48
2018-03-29T13:12:50.611Z,15.43
2018-03-29T13:15:17.050Z,15.27
2018-03-29T13:17:43.417Z,15.24
2018-03-29T13:20:09.865Z,15.29
2018-03-29T13:22:36.409Z,15.29
2018-03-29T13:25:02.958Z,15.29
2018-03-29T13:27:29.414Z,15.39
2018-03-29T13:29:55.806Z,15.33
2018-03-29T13:32:22.268Z,15.33
2018-03-29T13:34:48.738Z,15.25
2018-03-29T13:37:15.246Z,15.19
2018-03-29T13:39:41.633Z,15.27
2018-03-29T13:42:08.037Z,15.22
2018-03-29T13:44:34.516Z,15.15
2018-03-29T13:47:01.013Z,15.19
2018-03-29T13:49:27.513Z,15.18
2018-03-29T13:51:53.882Z,15.24
2018-03-29T13:54:20.290Z,15.30
2018-03-29T13:56:46.704Z,15.23
2018-03-29T13:59:13.122Z,15.19
2018-03-29T14:01:39.546Z,15.06
2018-03-29T14:04:06.044Z,15.12
2018-03-29T14:06:32.539Z,15.17
2018-03-29T14:08:59.028Z,15.16
2018-03-29T14:11:25.509Z,15.22
2018-03-29T14:13:51.948Z,15.22
2018-03-29T14:16:18.314Z,15.03
2018-03-29T14:18:44.772Z,15.16
2018-03-29T14:21:11.141Z,15.16
2018-03-29T14:23:37.935Z,15.20
2018-03-29T14:26:04.547Z,15.22
2018-03-29T14:28:30.930Z,15.21
2018-03-29T14:30:57.549Z,15.20
2018-03-29T14:33:23.954Z,15.17
2018-03-29T14:35:50.608Z,15.16
2018-03-29T14:38:17.286Z,15.26
2018-03-29T14:40:43.813Z,15.22
2018-03-29T14:43:10.302Z,15.25
2018-03-29T14:45:36.794Z,15.22
2018-03-29T14:48:03.214Z,15.22
2018-03-29T14:50:29.641Z,15.17
2018-03-29T14:52:56.150Z,15.19
2018-03-29T14:55:22.594Z,15.23
2018-03-29T14:57:49.022Z,15.28
2018-03-29T15:00:16.237Z,15.18
2018-03-29T15:02:42.701Z,15.20
2018-03-29T15:05:09.150Z,15.12
2018-03-29T15:07:35.662Z,15.14
2018-03-29T15:10:02.145Z,15.10
2018-03-29T15:12:28.557Z,15.05
2018-03-29T15:14:54.934Z,15.09
2018-03-29T15:17:21.386Z,15.09
2018-03-29T15:19:47.865Z,15.05
2018-03-29T15:22:14.286Z,15.04
2018-03-29T15:24:40.706Z,15.03
2018-03-29T15:27:07.142Z,15.04
2018-03-29T15:29:33.628Z,14.98
2018-03-29T15:32:00.146Z,14.93
2018-03-29T15:34:26.654Z,14.96
2018-03-29T15:36:53.025Z,14.92
2018-03-29T15:39:19.443Z,14.94
2018-03-29T15:41:45.873Z,14.96
2018-03-29T15:44:12.274Z,14.94
2018-03-29T15:46:38.765Z,14.98
2018-03-29T15:49:05.174Z,15.01
2018-03-29T15:51:31.569Z,15.00
2018-03-29T15:53:58.007Z,15.00
2018-03-29T15:56:24.434Z,15.00
2018-03-29T15:58:50.852Z,15.00
2018-03-29T16:01:17.353Z,14.97
2018-03-29T16:03:43.778Z,14.97
2018-03-29T16:06:10.218Z,14.95
2018-03-29T16:08:36.710Z,14.92
2018-03-29T16:11:03.181Z,14.91
2018-03-29T16:13:29.654Z,14.88
2018-03-29T16:15:56.121Z,14.85
2018-03-29T16:18:22.510Z,14.81
2018-03-29T16:20:48.941Z,14.80
2018-03-29T16:23:15.390Z,14.79
2018-03-29T16:25:41.738Z,14.73
2018-03-29T16:28:08.117Z,14.65
2018-03-29T16:30:34.678Z,14.61
2018-03-29T16:33:01.085Z,14.54
2018-03-29T16:35:27.474Z,14.46
2018-03-29T16:37:53.967Z,14.37
2018-03-29T16:40:20.330Z,14.31
2018-03-29T16:42:46.829Z,14.24
2018-03-29T16:45:13.226Z,14.17
2018-03-29T16:47:39.681Z,14.11
2018-03-29T16:50:06.133Z,14.04
2018-03-29T16:52:32.510Z,13.99
2018-03-29T16:54:58.996Z,13.92
2018-03-29T16:57:25.443Z,13.86
2018-03-29T16:59:51.841Z,13.82
2018-03-29T17:02:18.257Z,13.79
2018-03-29T17:04:44.754Z,13.78
2018-03-29T17:07:11.100Z,13.74
2018-03-29T17:09:37.534Z,13.68
2018-03-29T17:12:03.986Z,13.61
2018-03-29T17:14:30.441Z,13.56
2018-03-29T17:16:56.898Z,13.53
2018-03-29T17:19:23.373Z,13.48
2018-03-29T17:21:49.830Z,13.44
2018-03-29T17:24:16.245Z,13.40
2018-03-29T17:26:42.856Z,13.36
2018-03-29T17:29:09.301Z,13.33
2018-03-29T17:31:35.779Z,13.29
2018-03-29T17:34:02.177Z,13.23
2018-03-29T17:36:28.650Z,13.20
2018-03-29T17:38:55.106Z,13.17
2018-03-29T17:41:21.497Z,13.13
2018-03-29T17:43:47.941Z,13.07
2018-03-29T17:46:14.447Z,13.05
2018-03-29T17:48:40.898Z,12.99
2018-03-29T17:51:07.350Z,12.92
2018-03-29T17:53:33.737Z,12.90
2018-03-29T17:56:00.232Z,12.86
2018-03-29T17:58:26.603Z,12.83
2018-03-29T18:00:53.019Z,12.79
2018-03-29T18:03:19.427Z,12.74
2018-03-29T18:05:45.873Z,12.72
2018-03-29T18:08:12.280Z,12.69
2018-03-29T18:10:38.734Z,12.69
2018-03-29T18:13:05.149Z,12.66
2018-03-29T18:15:31.560Z,12.65
2018-03-29T18:17:57.965Z,12.64
2018-03-29T18:20:24.366Z,12.62
2018-03-29T18:22:50.786Z,12.58
2018-03-29T18:25:17.222Z,12.56
2018-03-29T18:27:43.625Z,12.53
2018-03-29T18:30:10.033Z,12.49
2018-03-29T18:32:36.493Z,12.47
2018-03-29T18:35:02.957Z,12.44
2018-03-29T18:37:29.382Z,12.42
2018-03-29T18:39:55.780Z,12.41
2018-03-29T18:42:22.206Z,12.40
2018-03-29T18:44:48.666Z,12.37
2018-03-29T18:47:15.037Z,12.37
2018-03-29T18:49:41.564Z,12.34
2018-03-29T18:52:08.038Z,12.34
2018-03-29T18:54:34.422Z,12.33
2018-03-29T18:57:00.806Z,12.33
2018-03-29T18:59:27.214Z,12.32
2018-03-29T19:01:53.641Z,12.31
2018-03-29T19:04:20.146Z,12.26
2018-03-29T19:06:46.515Z,12.25
2018-03-29T19:09:12.933Z,12.21
2018-03-29T19:11:39.349Z,12.19
2018-03-29T19:14:05.751Z,12.14
2018-03-29T19:16:32.185Z,12.05
2018-03-29T19:18:58.603Z,11.96
2018-03-29T19:21:25.080Z,11.97
2018-03-29T19:23:51.562Z,12.00
2018-03-29T19:26:17.997Z,11.98
2018-03-29T19:28:44.481Z,12.02
2018-03-29T19:31:10.902Z,12.08
2018-03-29T19:33:37.330Z,12.11
2018-03-29T19:36:03.757Z,12.14
2018-03-29T19:38:30.198Z,12.16
2018-03-29T19:40:56.610Z,12.05
2018-03-29T19:43:23.078Z,12.06
2018-03-29T19:45:49.522Z,12.04
2018-03-29T19:48:15.927Z,11.82
2018-03-29T19:50:42.419Z,11.96
2018-03-29T19:53:08.873Z,11.94
2018-03-29T19:55:35.298Z,11.88
2018-03-29T19:58:01.701Z,11.80
2018-03-29T20:00:28.119Z,11.70
2018-03-29T20:02:54.554Z,11.70
2018-03-29T20:05:20.959Z,11.68
2018-03-29T20:07:47.394Z,11.60
2018-03-29T20:10:13.834Z,11.48
2018-03-29T20:12:40.248Z,11.37
2018-03-29T20:15:06.691Z,11.41
2018-03-29T20:17:33.149Z,11.47
2018-03-29T20:19:59.616Z,11.30
2018-03-29T20:22:26.024Z,11.44
2018-03-29T20:24:52.404Z,11.42
2018-03-29T20:27:18.800Z,11.41
2018-03-29T20:29:45.208Z,11.41
2018-03-29T20:32:11.617Z,11.38
2018-03-29T20:34:38.069Z,11.38
2018-03-29T20:37:04.413Z,11.37
2018-03-29T20:39:30.798Z,11.28
2018-03-29T20:41:57.334Z,11.29
2018-03-29T20:44:23.823Z,11.19
2018-03-29T20:46:50.253Z,11.16
2018-03-29T20:49:16.642Z,11.02
2018-03-29T20:51:43.069Z,11.13
2018-03-29T20:54:09.545Z,11.03
2018-03-29T20:56:35.910Z,11.05
2018-03-29T20:59:02.274Z,10.96
2018-03-29T21:01:28.706Z,10.94
2018-03-29T21:03:55.142Z,10.91
2018-03-29T21:06:21.550Z,10.94
2018-03-29T21:08:47.982Z,10.92
2018-03-29T21:11:14.405Z,10.84
2018-03-29T21:13:40.786Z,10.91
2018-03-29T21:16:07.225Z,10.82
2018-03-29T21:18:33.613Z,10.66
2018-03-29T21:21:00.010Z,10.60
2018-03-29T21:23:26.624Z,10.58
2018-03-29T21:25:53.028Z,10.44
2018-03-29T21:28:19.485Z,10.57
2018-03-29T21:30:45.910Z,10.59
2018-03-29T21:33:12.322Z,10.62
2018-03-29T21:35:38.751Z,10.71
2018-03-29T21:38:05.168Z,10.76
2018-03-29T21:40:31.659Z,10.75
2018-03-29T21:42:58.092Z,10.74
2018-03-29T21:45:24.479Z,10.78
2018-03-29T21:47:50.895Z,10.82
2018-03-29T21:50:17.344Z,10.82
2018-03-29T21:52:43.901Z,10.79
2018-03-29T21:55:10.301Z,10.81
2018-03-29T21:57:36.721Z,10.77
2018-03-29T22:00:03.207Z,10.78
2018-03-29T22:02:29.734Z,10.70
2018-03-29T22:04:56.161Z,10.65
2018-03-29T22:07:22.522Z,10.61
2018-03-29T22:09:48.910Z,10.53
2018-03-29T22:12:15.318Z,10.56
2018-03-29T22:14:41.698Z,10.59
2018-03-29T22:17:08.078Z,10.59
2018-03-29T22:19:34.481Z,10.51
2018-03-29T22:22:00.931Z,10.55
2018-03-29T22:24:27.335Z,10.55
2018-03-29T22:26:53.810Z,10.55
2018-03-29T22:29:20.250Z,10.46
2018-03-29T22:31:46.667Z,10.47
2018-03-29T22:34:13.117Z,10.53
2018-03-29T22:36:39.606Z,10.51
2018-03-29T22:39:06.076Z,10.47
2018-03-29T22:41:32.499Z,10.40
2018-03-29T22:43:58.942Z,10.44
2018-03-29T22:46:25.334Z,10.44
2018-03-29T22:48:51.810Z,10.38
2018-03-29T22:51:18.247Z,10.41
2018-03-29T22:53:44.738Z,10.38
2018-03-29T22:56:11.205Z,10.36
2018-03-29T22:58:37.573Z,10.28
2018-03-29T23:01:03.997Z,10.15
2018-03-29T23:03:30.401Z,10.13
2018-03-29T23:05:56.774Z,9.92
2018-03-29T23:08:23.177Z,9.81
2018-03-29T23:10:49.605Z,9.79
2018-03-29T23:13:16.062Z,9.73
2018-03-29T23:15:42.444Z,9.66
2018-03-29T23:18:08.878Z,9.76
2018-03-29T23:20:35.305Z,9.82
2018-03-29T23:23:01.762Z,9.85
2018-03-29T23:25:28.187Z,9.91
2018-03-29T23:27:54.649Z,9.93
2018-03-29T23:30:21.054Z,9.94
2018-03-29T23:32:47.413Z,9.89
2018-03-29T23:35:13.789Z,9.89
2018-03-29T23:37:40.210Z,9.84
2018-03-29T23:40:06.581Z,9.79
2018-03-29T23:42:32.966Z,9.80
2018-03-29T23:44:59.365Z,9.64
2018-03-29T23:47:25.766Z,9.54
2018-03-29T23:49:52.186Z,9.58
2018-03-29T23:52:18.626Z,9.54
2018-03-29T23:54:45.020Z,9.58
2018-03-29T23:57:11.461Z,9.61
2018-03-29T23:59:37.887Z,9.50
